Pagrindinis puslapis
METAR-TAF:

METAR-TAF

Oro uostai :

Al-`Ula, Saudo Arabija

platuma: 26-29-00N, ilguma: 038-07-01E, Aukštis: 624 m

Dabartinis oras

Ataskaita buvo paskelbta 1 valandą ir 5 minutes, ne 11:00 UTC
Ramus vėjas
Temperatūra 24°C
Drėgmė 20%
Slėgis 1019 hPa
Matomumas 10 km arba daugiau
nėra debesų žemiau 1500 m ir nėra kamuolinių lietaus debesų

METAR: OEAO 061100Z 00000KT CAVOK 24/00 Q1019

Laikas: 15:05 (12:05 UTC)

Prognozė

Ataskaita buvo paskelbta 1 valandą ir 5 minutes, ne 11:00 UTC
Prognozė galioja nuo 06 metu 12 UTC su 07 metu 18 UTC
Vėjas 10 kt iš Šiaurės
Matomumas 10 km arba daugiau
Mažai debesys ne aukštis 4000 ft
Tapsmas
nuo 07 metu 00 UTC su 07 metu 02 UTC
Vėjas 3 kt nuo kintamojo kryptimis
Tapsmas
nuo 07 metu 08 UTC su 07 metu 10 UTC
Vėjas 10 kt iš Pietų/Pietvakarių

TAF: OEAO 061100Z 0612/0718 36010KT 9999 FEW040 BECMG 0700/0702 VRB03KT BECMG 0708/0710 20010KT

Orai ataskaitas ir orų prognozės (METAR, TAF).

turimą stotys yra geltonos ir raudonos taškus žemėlapyje.

Perkelti pele per norėdami pamatyti stoties vardą.

Tada spustelėkite, norėdami matyti oro stebėjimo ir prognozės.

Norėdami pakeisti žemėlapį: spustelėkite ant žalios mygtukų su juodo kryžiaus žemyn,; žalią mygtuką su brūkšneliu, jei norite nutolinti; arba žalių rodyklių gretimoms žemėlapius.


METAR-TAF: